createdAt,value
2023-03-06T00:01:48.859Z,6.55
2023-03-06T00:04:34.928Z,5.65
2023-03-06T00:07:21.404Z,6.38
2023-03-06T00:10:14.183Z,6.95
2023-03-06T00:13:03.258Z,6.25
2023-03-06T00:15:50.333Z,7.28
2023-03-06T00:18:36.702Z,7.68
2023-03-06T00:21:23.267Z,8.45
2023-03-06T00:24:09.818Z,8.88
2023-03-06T00:26:57.208Z,8.95
2023-03-06T00:29:44.749Z,10.23
2023-03-06T00:32:31.776Z,10.38
2023-03-06T00:35:18.399Z,11.90
2023-03-06T00:38:04.481Z,11.82
2023-03-06T00:40:52.607Z,13.50
2023-03-06T00:43:40.507Z,14.10
2023-03-06T00:46:27.742Z,13.25
2023-03-06T00:49:15.639Z,13.30
2023-03-06T00:52:02.030Z,14.85
2023-03-06T00:54:48.425Z,15.77
2023-03-06T00:57:35.194Z,15.73
2023-03-06T01:00:23.874Z,16.50
2023-03-06T01:03:10.169Z,17.00
2023-03-06T01:05:56.734Z,16.90
2023-03-06T01:08:42.932Z,16.92
2023-03-06T01:11:29.229Z,17.67
2023-03-06T01:14:15.623Z,18.02
2023-03-06T01:17:03.557Z,16.63
2023-03-06T01:19:50.230Z,16.67
2023-03-06T01:22:36.554Z,17.63
2023-03-06T01:25:24.322Z,17.25
2023-03-06T01:28:10.745Z,16.45
2023-03-06T01:30:57.625Z,17.73
2023-03-06T01:33:45.398Z,18.25
2023-03-06T01:36:32.762Z,17.80
2023-03-06T01:39:18.852Z,17.85
2023-03-06T01:42:06.029Z,18.20
2023-03-06T01:45:03.536Z,18.77
2023-03-06T01:47:49.729Z,18.42
2023-03-06T01:50:37.858Z,17.60
2023-03-06T01:53:24.088Z,17.67
2023-03-06T01:56:12.717Z,17.90
2023-03-06T01:59:00.572Z,17.33
2023-03-06T02:01:48.186Z,18.30
2023-03-06T02:04:35.406Z,17.67
2023-03-06T02:07:23.453Z,17.25
2023-03-06T02:10:10.575Z,17.35
2023-03-06T02:12:57.241Z,16.63
2023-03-06T02:15:45.222Z,16.08
2023-03-06T02:18:34.020Z,16.65
2023-03-06T02:21:25.247Z,15.43
2023-03-06T02:24:32.339Z,16.13
2023-03-06T02:27:21.553Z,15.35
2023-03-06T02:32:57.198Z,15.32
2023-03-06T02:35:50.655Z,15.48
2023-03-06T02:38:43.412Z,16.67
2023-03-06T02:41:30.678Z,15.85
2023-03-06T02:44:21.674Z,15.68
2023-03-06T02:47:08.422Z,16.75
2023-03-06T02:49:55.098Z,16.10
2023-03-06T02:52:41.329Z,15.90
2023-03-06T02:55:27.724Z,16.58
2023-03-06T02:58:15.228Z,16.67
2023-03-06T03:01:03.014Z,17.17
2023-03-06T03:03:50.085Z,17.35
2023-03-06T03:06:36.578Z,17.30
2023-03-06T03:09:23.281Z,18.77
2023-03-06T03:12:10.770Z,18.95
2023-03-06T03:14:58.029Z,18.25
2023-03-06T03:17:45.834Z,17.77
2023-03-06T03:20:32.253Z,17.23
2023-03-06T03:23:18.524Z,16.70
2023-03-06T03:26:09.198Z,18.38
2023-03-06T03:28:57.882Z,16.98
2023-03-06T03:31:44.700Z,16.63
2023-03-06T03:34:33.132Z,18.15
2023-03-06T03:37:19.901Z,17.25
2023-03-06T03:40:07.963Z,18.73
2023-03-06T03:42:54.653Z,17.70
2023-03-06T03:45:41.124Z,17.95
2023-03-06T03:48:27.744Z,17.92
2023-03-06T03:51:16.864Z,16.88
2023-03-06T03:54:08.213Z,17.05
2023-03-06T03:56:59.669Z,17.00
2023-03-06T03:59:51.145Z,16.58
2023-03-06T04:02:46.074Z,15.45
2023-03-06T04:05:41.955Z,14.05
2023-03-06T04:08:31.013Z,14.30
2023-03-06T04:11:18.057Z,13.43
2023-03-06T04:14:04.847Z,13.02
2023-03-06T04:16:51.415Z,12.45
2023-03-06T04:19:38.097Z,12.55
2023-03-06T04:22:24.484Z,13.20
2023-03-06T04:25:12.697Z,12.38
2023-03-06T04:28:00.006Z,12.30
2023-03-06T04:30:47.758Z,11.60
2023-03-06T04:33:34.451Z,11.18
2023-03-06T04:36:27.868Z,10.25
2023-03-06T04:39:17.752Z,10.32
2023-03-06T04:42:06.033Z,11.50
2023-03-06T04:44:52.182Z,9.77
2023-03-06T04:47:38.744Z,10.32
2023-03-06T04:50:26.370Z,10.95
2023-03-06T04:53:14.451Z,11.23
2023-03-06T04:56:00.658Z,8.93
2023-03-06T04:58:48.565Z,9.50
2023-03-06T05:01:34.927Z,9.43
2023-03-06T05:04:21.426Z,9.38
2023-03-06T05:07:07.968Z,16.55
2023-03-06T05:09:54.651Z,11.68
2023-03-06T05:12:41.044Z,8.82
2023-03-06T05:15:28.818Z,9.45
2023-03-06T05:18:15.343Z,9.95
2023-03-06T05:21:02.258Z,10.57
2023-03-06T05:23:48.371Z,11.25
2023-03-06T05:26:34.911Z,11.25
2023-03-06T05:29:21.501Z,9.98
2023-03-06T05:32:09.789Z,10.45
2023-03-06T05:34:56.694Z,10.65
2023-03-06T05:37:43.004Z,11.82
2023-03-06T05:40:29.540Z,11.98
2023-03-06T05:43:16.109Z,10.73
2023-03-06T05:46:03.971Z,11.85
2023-03-06T05:48:53.077Z,15.68
2023-03-06T05:51:39.525Z,11.57
2023-03-06T05:54:26.688Z,10.68
2023-03-06T05:57:13.333Z,11.40
2023-03-06T05:59:59.700Z,12.30
2023-03-06T06:02:46.910Z,12.25
2023-03-06T06:05:34.654Z,13.20
2023-03-06T06:08:21.618Z,14.00
2023-03-06T06:11:08.598Z,13.10
2023-03-06T06:13:55.126Z,13.18
2023-03-06T06:16:41.818Z,13.27
2023-03-06T06:19:29.881Z,16.92
2023-03-06T06:22:17.827Z,14.95
2023-03-06T06:25:04.505Z,15.45
2023-03-06T06:27:50.590Z,14.55
2023-03-06T06:30:37.246Z,15.13
2023-03-06T06:33:24.347Z,15.73
2023-03-06T06:36:18.609Z,23.42
2023-03-06T06:39:07.714Z,18.17
2023-03-06T06:42:09.576Z,16.90
2023-03-06T06:45:00.367Z,15.40
2023-03-06T06:47:50.120Z,16.35
2023-03-06T06:50:36.594Z,15.60
2023-03-06T06:53:22.835Z,15.10
2023-03-06T06:56:10.534Z,15.57
2023-03-06T06:59:15.308Z,13.93
2023-03-06T07:02:02.303Z,13.93
2023-03-06T07:05:02.344Z,12.73
2023-03-06T07:07:51.281Z,12.60
2023-03-06T07:10:40.078Z,11.57
2023-03-06T07:13:27.681Z,9.68
2023-03-06T07:16:13.931Z,8.90
2023-03-06T07:19:00.440Z,9.13
2023-03-06T07:21:47.076Z,7.85
2023-03-06T07:24:33.665Z,6.70
2023-03-06T07:27:20.227Z,5.13
2023-03-06T07:30:09.550Z,4.60
2023-03-06T07:32:56.224Z,3.47
2023-03-06T07:35:42.842Z,3.75
2023-03-06T07:38:28.970Z,2.78
2023-03-06T07:41:17.169Z,2.60
2023-03-06T07:44:03.837Z,2.35
2023-03-06T07:46:51.733Z,3.50
2023-03-06T07:49:38.010Z,2.70
2023-03-06T07:52:24.918Z,2.15
2023-03-06T07:55:12.683Z,2.03
2023-03-06T07:57:58.762Z,2.05
2023-03-06T08:00:45.096Z,1.80
2023-03-06T08:03:32.877Z,2.33
2023-03-06T08:06:21.951Z,1.40
2023-03-06T08:09:08.911Z,1.75
2023-03-06T08:11:55.338Z,1.58
2023-03-06T08:14:41.694Z,1.67
2023-03-06T08:17:28.056Z,1.70
2023-03-06T08:20:16.042Z,1.70
2023-03-06T08:23:02.361Z,1.42
2023-03-06T08:25:56.833Z,1.60
2023-03-06T08:28:43.573Z,1.42
2023-03-06T08:31:32.766Z,1.45
2023-03-06T08:34:22.289Z,1.38
2023-03-06T08:37:09.852Z,1.10
2023-03-06T08:39:56.527Z,1.17
2023-03-06T08:42:42.975Z,1.20
2023-03-06T08:45:29.573Z,1.00
2023-03-06T08:48:15.681Z,1.10
2023-03-06T08:51:02.047Z,1.27
2023-03-06T08:53:50.258Z,1.00
2023-03-06T08:56:36.446Z,1.00
2023-03-06T08:59:24.689Z,0.90
2023-03-06T09:02:15.109Z,1.10
2023-03-06T09:05:02.024Z,0.93
2023-03-06T09:07:48.236Z,1.20
2023-03-06T09:10:35.907Z,0.90
2023-03-06T09:13:22.645Z,1.08
2023-03-06T09:16:10.597Z,1.00
2023-03-06T09:18:58.094Z,0.80
2023-03-06T09:21:44.447Z,0.70
2023-03-06T09:24:31.323Z,0.88
2023-03-06T09:27:19.513Z,0.77
2023-03-06T09:30:06.855Z,0.60
2023-03-06T09:32:53.357Z,0.55
2023-03-06T09:35:43.592Z,0.80
2023-03-06T09:41:26.301Z,1.15
2023-03-06T09:44:18.017Z,0.70
2023-03-06T09:47:36.921Z,0.57
2023-03-06T09:50:31.521Z,0.60
2023-03-06T09:53:39.171Z,0.77
2023-03-06T09:56:31.013Z,0.80
2023-03-06T09:59:22.510Z,3.05
2023-03-06T10:02:15.926Z,0.93
2023-03-06T10:05:06.706Z,1.08
2023-03-06T10:07:57.734Z,0.90
2023-03-06T10:10:50.109Z,0.68
2023-03-06T10:13:43.353Z,0.60
2023-03-06T10:16:33.209Z,0.93
2023-03-06T10:19:21.019Z,0.80
2023-03-06T10:22:20.650Z,0.80
2023-03-06T10:25:16.841Z,2.20
2023-03-06T10:28:14.036Z,0.80
2023-03-06T10:31:06.971Z,0.65
2023-03-06T10:33:57.235Z,0.75
2023-03-06T10:36:43.680Z,0.60
2023-03-06T10:39:30.349Z,0.80
2023-03-06T10:42:16.424Z,0.80
2023-03-06T10:45:11.446Z,1.00
2023-03-06T10:48:12.147Z,1.10
2023-03-06T10:51:18.827Z,0.73
2023-03-06T10:54:20.476Z,0.73
2023-03-06T10:57:22.146Z,0.80
2023-03-06T11:00:29.437Z,0.60
2023-03-06T11:03:21.261Z,0.90
2023-03-06T11:06:13.264Z,2.35
2023-03-06T11:09:16.551Z,1.63
2023-03-06T11:12:22.782Z,0.98
2023-03-06T11:15:20.897Z,0.75
2023-03-06T11:18:30.970Z,1.00
2023-03-06T11:21:31.728Z,0.90
2023-03-06T11:24:21.294Z,0.95
2023-03-06T11:27:22.213Z,1.00
2023-03-06T11:30:19.169Z,1.05
2023-03-06T11:33:15.669Z,0.90
2023-03-06T11:36:12.149Z,1.20
2023-03-06T11:38:59.661Z,1.15
2023-03-06T11:41:54.967Z,1.30
2023-03-06T11:44:57.181Z,1.50
2023-03-06T11:47:47.139Z,1.35
2023-03-06T11:50:37.085Z,1.30
2023-03-06T11:53:28.206Z,1.50
2023-03-06T11:56:34.251Z,1.00
2023-03-06T12:00:03.090Z,1.40
2023-03-06T12:03:28.065Z,1.73
2023-03-06T12:06:22.936Z,2.13
2023-03-06T12:09:29.588Z,2.30
2023-03-06T12:12:31.623Z,2.05
2023-03-06T12:15:26.675Z,1.92
2023-03-06T12:18:27.739Z,3.00
2023-03-06T12:21:22.602Z,2.60
2023-03-06T12:24:23.206Z,2.53
2023-03-06T12:27:16.458Z,2.95
2023-03-06T12:30:26.156Z,3.60
2023-03-06T12:33:23.570Z,4.50
2023-03-06T12:36:25.123Z,3.70
2023-03-06T12:39:17.876Z,5.25
2023-03-06T12:42:23.485Z,4.72
2023-03-06T12:45:31.759Z,4.78
2023-03-06T12:48:22.897Z,4.72
2023-03-06T12:51:13.535Z,5.60
2023-03-06T12:54:03.062Z,5.20
2023-03-06T12:56:50.234Z,5.10
2023-03-06T12:59:40.054Z,5.50
2023-03-06T13:02:58.184Z,6.25
2023-03-06T13:06:14.264Z,5.60
2023-03-06T13:09:12.658Z,6.68
2023-03-06T13:12:14.751Z,6.57
2023-03-06T13:15:07.824Z,5.88
2023-03-06T13:17:53.918Z,6.80
2023-03-06T13:20:45.040Z,6.30
2023-03-06T13:23:53.223Z,6.57
2023-03-06T13:26:55.285Z,7.00
2023-03-06T13:30:06.651Z,7.32
2023-03-06T13:32:53.742Z,5.88
2023-03-06T13:35:57.101Z,5.18
2023-03-06T13:39:09.647Z,5.57
2023-03-06T13:41:59.117Z,5.40
2023-03-06T13:44:45.898Z,4.97
2023-03-06T13:47:59.051Z,5.43
2023-03-06T13:50:44.456Z,5.32
2023-03-06T13:54:00.219Z,4.57
2023-03-06T13:57:19.583Z,4.90
2023-03-06T14:00:34.736Z,4.18
2023-03-06T14:03:49.417Z,4.20
2023-03-06T14:06:56.749Z,4.55
2023-03-06T14:09:46.506Z,4.15
2023-03-06T14:12:35.561Z,4.32
2023-03-06T14:15:25.582Z,5.32
2023-03-06T14:18:19.246Z,5.15
2023-03-06T14:21:11.723Z,5.15
2023-03-06T14:24:00.816Z,4.25
2023-03-06T14:26:51.758Z,3.85
2023-03-06T14:29:38.168Z,4.53
2023-03-06T14:32:24.966Z,4.22
2023-03-06T14:35:24.386Z,4.50
2023-03-06T14:38:16.226Z,5.00
2023-03-06T14:41:03.202Z,5.15
2023-03-06T14:43:50.704Z,5.32
2023-03-06T14:46:37.312Z,6.32
2023-03-06T14:49:26.076Z,5.03
2023-03-06T14:52:20.362Z,4.50
2023-03-06T14:55:11.951Z,3.75
2023-03-06T14:58:03.955Z,3.70
2023-03-06T15:00:55.126Z,2.95
2023-03-06T15:03:45.341Z,2.28
2023-03-06T15:06:37.754Z,3.45
2023-03-06T15:09:27.555Z,3.65
2023-03-06T15:12:38.611Z,4.35
2023-03-06T15:15:29.020Z,3.90
2023-03-06T15:18:30.953Z,3.92
2023-03-06T15:21:19.882Z,4.05
2023-03-06T15:24:32.470Z,4.95
2023-03-06T15:27:21.729Z,4.25
2023-03-06T15:30:32.383Z,4.57
2023-03-06T15:33:25.791Z,5.45
2023-03-06T15:36:27.478Z,6.07
2023-03-06T15:39:28.676Z,8.07
2023-03-06T15:42:19.268Z,8.15
2023-03-06T15:45:16.722Z,8.60
2023-03-06T15:48:03.338Z,9.65
2023-03-06T15:50:49.519Z,9.85
2023-03-06T15:53:37.430Z,9.90
2023-03-06T15:56:29.979Z,12.02
2023-03-06T15:59:24.077Z,10.98
2023-03-06T16:02:17.397Z,11.88
2023-03-06T16:05:05.662Z,10.77
2023-03-06T16:07:53.457Z,12.00
2023-03-06T16:10:43.377Z,10.93
2023-03-06T16:13:29.955Z,11.88
2023-03-06T16:16:19.351Z,11.63
2023-03-06T16:19:20.352Z,10.80
2023-03-06T16:22:12.091Z,12.90
2023-03-06T16:24:58.437Z,11.27
2023-03-06T16:27:55.345Z,12.93
2023-03-06T16:30:42.776Z,13.40
2023-03-06T16:33:29.064Z,13.20
2023-03-06T16:36:19.688Z,14.52
2023-03-06T16:39:07.042Z,13.25
2023-03-06T16:41:54.011Z,12.68
2023-03-06T16:44:41.714Z,12.52
2023-03-06T16:47:28.009Z,12.63
2023-03-06T16:50:23.448Z,25.17
2023-03-06T16:53:10.550Z,12.02
2023-03-06T16:55:56.867Z,12.88
2023-03-06T16:58:44.064Z,11.68
2023-03-06T17:01:32.048Z,12.82
2023-03-06T17:04:18.456Z,12.32
2023-03-06T17:07:05.031Z,10.50
2023-03-06T17:09:51.254Z,11.93
2023-03-06T17:12:38.753Z,10.70
2023-03-06T17:15:25.237Z,9.60
2023-03-06T17:18:13.142Z,9.73
2023-03-06T17:21:00.121Z,10.55
2023-03-06T17:23:46.355Z,11.07
2023-03-06T17:26:33.351Z,11.02
2023-03-06T17:29:19.466Z,11.80
2023-03-06T17:32:05.957Z,12.57
2023-03-06T17:34:53.845Z,10.82
2023-03-06T17:37:40.437Z,11.05
2023-03-06T17:40:27.202Z,11.10
2023-03-06T17:43:13.475Z,11.23
2023-03-06T17:46:03.937Z,11.32
2023-03-06T17:48:50.314Z,11.32
2023-03-06T17:51:39.266Z,12.68
2023-03-06T17:54:26.181Z,12.38
2023-03-06T17:57:12.518Z,12.05
2023-03-06T17:59:59.140Z,12.23
2023-03-06T18:02:46.060Z,13.23
2023-03-06T18:05:32.638Z,13.43
2023-03-06T18:08:20.336Z,14.38
2023-03-06T18:11:09.636Z,13.77
2023-03-06T18:13:56.519Z,13.65
2023-03-06T18:16:42.942Z,13.10
2023-03-06T18:19:29.317Z,11.68
2023-03-06T18:22:15.854Z,12.73
2023-03-06T18:25:04.091Z,13.15
2023-03-06T18:27:50.623Z,14.68
2023-03-06T18:30:38.004Z,13.35
2023-03-06T18:33:24.262Z,13.20
2023-03-06T18:36:10.822Z,13.98
2023-03-06T18:38:57.273Z,13.32
2023-03-06T18:41:45.662Z,13.02
2023-03-06T18:44:31.675Z,12.98
2023-03-06T18:47:18.274Z,13.85
2023-03-06T18:50:05.006Z,14.43
2023-03-06T18:52:51.391Z,15.50
2023-03-06T18:55:38.443Z,13.35
2023-03-06T18:58:26.344Z,14.40
2023-03-06T19:01:13.085Z,14.95
2023-03-06T19:04:01.942Z,14.85
2023-03-06T19:06:48.268Z,16.83
2023-03-06T19:09:35.006Z,16.98
2023-03-06T19:12:21.678Z,15.85
2023-03-06T19:15:10.496Z,15.77
2023-03-06T19:17:57.083Z,15.65
2023-03-06T19:20:43.920Z,17.42
2023-03-06T19:23:30.603Z,16.27
2023-03-06T19:26:23.370Z,17.33
2023-03-06T19:29:09.855Z,18.30
2023-03-06T19:31:58.785Z,17.00
2023-03-06T19:34:45.254Z,17.85
2023-03-06T19:37:31.611Z,17.38
2023-03-06T19:40:18.290Z,18.75
2023-03-06T19:43:04.877Z,18.77
2023-03-06T19:45:51.808Z,19.23
2023-03-06T19:48:39.842Z,17.58
2023-03-06T19:51:26.741Z,19.02
2023-03-06T19:54:13.949Z,18.55
2023-03-06T19:57:00.612Z,18.75
2023-03-06T19:59:50.534Z,18.77
2023-03-06T20:02:37.378Z,20.13
2023-03-06T20:05:25.290Z,18.73
2023-03-06T20:08:11.786Z,19.17
2023-03-06T20:10:58.289Z,18.80
2023-03-06T20:13:47.529Z,20.30
2023-03-06T20:16:34.832Z,17.00
2023-03-06T20:19:21.894Z,19.10
2023-03-06T20:22:09.290Z,19.02
2023-03-06T20:24:55.755Z,20.10
2023-03-06T20:27:42.268Z,20.02
2023-03-06T20:30:37.514Z,20.52
2023-03-06T20:33:26.438Z,20.52
2023-03-06T20:36:14.304Z,19.85
2023-03-06T20:39:04.651Z,19.45
2023-03-06T20:41:52.145Z,19.80
2023-03-06T20:44:38.537Z,19.13
2023-03-06T20:47:24.847Z,21.00
2023-03-06T20:50:12.226Z,20.92
2023-03-06T20:52:59.262Z,20.45
2023-03-06T20:55:49.691Z,20.35
2023-03-06T20:58:36.365Z,21.95
2023-03-06T21:01:24.350Z,22.25
2023-03-06T21:04:13.576Z,21.27
2023-03-06T21:06:59.783Z,20.35
2023-03-06T21:09:47.621Z,20.48
2023-03-06T21:12:35.037Z,21.38
2023-03-06T21:15:21.649Z,20.65
2023-03-06T21:18:08.163Z,22.02
2023-03-06T21:20:54.612Z,18.92
2023-03-06T21:23:41.625Z,20.52
2023-03-06T21:26:30.251Z,20.33
2023-03-06T21:29:18.085Z,20.10
2023-03-06T21:32:04.758Z,18.55
2023-03-06T21:34:51.169Z,18.52
2023-03-06T21:37:37.445Z,17.25
2023-03-06T21:40:23.902Z,16.95
2023-03-06T21:43:10.394Z,13.85
2023-03-06T21:45:59.260Z,11.75
2023-03-06T21:48:45.711Z,10.32
2023-03-06T21:51:31.848Z,8.77
2023-03-06T21:54:18.242Z,8.63
2023-03-06T21:57:04.661Z,7.90
2023-03-06T21:59:50.962Z,7.55
2023-03-06T22:02:39.205Z,7.13
2023-03-06T22:05:25.578Z,7.30
2023-03-06T22:08:11.926Z,8.23
2023-03-06T22:10:58.114Z,8.52
2023-03-06T22:13:45.233Z,7.32
2023-03-06T22:16:31.713Z,7.40
2023-03-06T22:19:19.640Z,5.90
2023-03-06T22:22:06.145Z,5.55
2023-03-06T22:24:52.514Z,6.22
2023-03-06T22:27:39.199Z,6.10
2023-03-06T22:30:25.409Z,7.00
2023-03-06T22:33:11.773Z,7.57
2023-03-06T22:36:05.993Z,7.78
2023-03-06T22:38:55.561Z,7.90
2023-03-06T22:41:42.137Z,7.82
2023-03-06T22:44:28.317Z,7.93
2023-03-06T22:47:14.763Z,8.80
2023-03-06T22:50:00.877Z,7.95
2023-03-06T22:52:48.631Z,8.32
2023-03-06T22:55:35.846Z,8.25
2023-03-06T22:58:21.979Z,8.05
2023-03-06T23:01:11.350Z,7.95
2023-03-06T23:03:59.964Z,7.63
2023-03-06T23:06:46.986Z,6.82
2023-03-06T23:09:34.990Z,6.72
2023-03-06T23:12:41.576Z,7.03
2023-03-06T23:15:47.045Z,6.18
2023-03-06T23:18:52.749Z,6.32
2023-03-06T23:21:58.193Z,5.93
2023-03-06T23:25:05.920Z,5.95
2023-03-06T23:27:52.450Z,6.70
2023-03-06T23:30:39.151Z,5.25
2023-03-06T23:33:25.602Z,5.35
2023-03-06T23:36:13.345Z,5.53
2023-03-06T23:38:59.806Z,6.07
2023-03-06T23:41:47.875Z,5.70
2023-03-06T23:44:35.615Z,6.10
2023-03-06T23:47:21.823Z,6.47
2023-03-06T23:50:09.095Z,5.30
2023-03-06T23:52:55.683Z,5.32
2023-03-06T23:55:42.571Z,5.78
2023-03-06T23:58:31.046Z,6.00
